EXS216 LTFE-EGNM
Flight info
| Callsign | EXS216 |
|---|---|
| Flight time | 4h 6m |
| Altitude | 38000 |
| Route | N0437F380 AKBUK G80 OKESA UN128 RIKSO DCT LMO DCT EVIVI/N0437F400 DCT OKANA DCT XENIT DCT BGD DCT NIVIS DCT BABIT DCT OLATI DCT ARSIN DCT BUDEX DCT BUDWA DCT RAPET DCT MASEK DCT OTMEC DCT PAM DCT RAVLO Y70 BODSO/N0399F340 Y70 SUPEL/N0358F280 Y70 BATLI DCT LBA |
| Aircraft | B738/M-SDFGHIJ1RWXYZ/LB1 |
Departure
| Time | 2026-05-08 07:49 |
|---|---|
| Airport | Milas Bodrum International Airport (LTFE) |
Arrival
| Time | 2026-05-08 11:55 |
|---|---|
| Airport | Leeds Bradford Airport (EGNM) |
| Time | Latitude | Longitude | Altitude | Speed | Heading |
|---|---|---|---|---|---|
| 2026-05-08 07:35 | 37.24435 | 27.67581 | 30 ft | 0 kts | 197° |
| 2026-05-08 07:42 | 37.24456 | 27.67589 | 30 ft | 4 kts | 197° |
| 2026-05-08 07:42 | 37.24482 | 27.67598 | 30 ft | 4 kts | 193° |
| 2026-05-08 07:42 | 37.24508 | 27.67605 | 30 ft | 4 kts | 189° |
| 2026-05-08 07:43 | 37.24523 | 27.67608 | 30 ft | 0 kts | 188° |
| 2026-05-08 07:45 | 37.24521 | 27.67609 | 30 ft | 1 kts | 166° |
| 2026-05-08 07:45 | 37.24515 | 27.67616 | 28 ft | 2 kts | 142° |
| 2026-05-08 07:45 | 37.24505 | 27.67638 | 30 ft | 3 kts | 111° |
| 2026-05-08 07:46 | 37.24496 | 27.67671 | 30 ft | 5 kts | 108° |
| 2026-05-08 07:46 | 37.24485 | 27.67714 | 30 ft | 6 kts | 108° |
| 2026-05-08 07:46 | 37.24471 | 27.67772 | 29 ft | 8 kts | 106° |
| 2026-05-08 07:46 | 37.24452 | 27.67854 | 30 ft | 11 kts | 106° |
| 2026-05-08 07:47 | 37.24429 | 27.67948 | 28 ft | 11 kts | 106° |
| 2026-05-08 07:47 | 37.24458 | 27.68028 | 30 ft | 11 kts | 32° |
| 2026-05-08 07:47 | 37.24527 | 27.68067 | 29 ft | 11 kts | 18° |
| 2026-05-08 07:47 | 37.24603 | 27.68096 | 29 ft | 12 kts | 16° |
| 2026-05-08 07:48 | 37.24681 | 27.68125 | 29 ft | 12 kts | 17° |
| 2026-05-08 07:48 | 37.24738 | 27.68083 | 29 ft | 11 kts | 288° |
| 2026-05-08 07:48 | 37.24777 | 27.67926 | 31 ft | 41 kts | 287° |
| 2026-05-08 07:48 | 37.24922 | 27.67327 | 31 ft | 101 kts | 287° |
| 2026-05-08 07:49 | 37.25175 | 27.66266 | 29 ft | 150 kts | 287° |
| 2026-05-08 07:49 | 37.25512 | 27.64899 | 296 ft | 168 kts | 288° |
| 2026-05-08 07:49 | 37.25870 | 27.63481 | 830 ft | 173 kts | 289° |
| 2026-05-08 07:49 | 37.26238 | 27.62041 | 1420 ft | 174 kts | 286° |
| 2026-05-08 07:50 | 37.26544 | 27.60504 | 1824 ft | 189 kts | 281° |
| 2026-05-08 07:50 | 37.26815 | 27.58824 | 2173 ft | 209 kts | 281° |
| 2026-05-08 07:50 | 37.27129 | 27.57018 | 2616 ft | 217 kts | 283° |
| 2026-05-08 07:50 | 37.27474 | 27.55088 | 2949 ft | 234 kts | 282° |
| 2026-05-08 07:51 | 37.27845 | 27.53079 | 3640 ft | 235 kts | 283° |
| 2026-05-08 07:51 | 37.28354 | 27.51142 | 4363 ft | 236 kts | 304° |
| 2026-05-08 07:51 | 37.29626 | 27.49882 | 4993 ft | 239 kts | 343° |
| 2026-05-08 07:51 | 37.31274 | 27.49539 | 5642 ft | 241 kts | 352° |
| 2026-05-08 07:52 | 37.32947 | 27.49265 | 6309 ft | 243 kts | 352° |
| 2026-05-08 07:52 | 37.34629 | 27.48983 | 6935 ft | 245 kts | 352° |
| 2026-05-08 07:52 | 37.36322 | 27.48688 | 7539 ft | 248 kts | 352° |
| 2026-05-08 07:52 | 37.38108 | 27.48366 | 7742 ft | 270 kts | 351° |
| 2026-05-08 07:53 | 37.40008 | 27.48014 | 8195 ft | 280 kts | 351° |
| 2026-05-08 07:53 | 37.41946 | 27.47648 | 8861 ft | 283 kts | 351° |
| 2026-05-08 07:53 | 37.43899 | 27.47276 | 9543 ft | 286 kts | 351° |
| 2026-05-08 07:53 | 37.45892 | 27.46893 | 10115 ft | 292 kts | 351° |
| 2026-05-08 07:54 | 37.47927 | 27.46500 | 10523 ft | 305 kts | 350° |
| 2026-05-08 07:54 | 37.50088 | 27.46017 | 10659 ft | 325 kts | 344° |
| 2026-05-08 07:54 | 37.52249 | 27.44951 | 10805 ft | 343 kts | 334° |
| 2026-05-08 07:54 | 37.54442 | 27.43611 | 11087 ft | 356 kts | 333° |
| 2026-05-08 07:55 | 37.56688 | 27.42246 | 11629 ft | 360 kts | 334° |
| 2026-05-08 07:55 | 37.58958 | 27.40898 | 12271 ft | 362 kts | 334° |
| 2026-05-08 07:55 | 37.61246 | 27.39561 | 12909 ft | 364 kts | 334° |
| 2026-05-08 07:55 | 37.63556 | 27.38222 | 13525 ft | 367 kts | 335° |
| 2026-05-08 07:56 | 37.65903 | 27.36917 | 14130 ft | 370 kts | 335° |
| 2026-05-08 07:56 | 37.68278 | 27.35626 | 14701 ft | 373 kts | 335° |
| 2026-05-08 07:56 | 37.70668 | 27.34333 | 15318 ft | 375 kts | 335° |
| 2026-05-08 07:56 | 37.73036 | 27.33050 | 15936 ft | 376 kts | 335° |
| 2026-05-08 07:57 | 37.75448 | 27.31738 | 16527 ft | 380 kts | 335° |
| 2026-05-08 07:57 | 37.77886 | 27.30408 | 17091 ft | 383 kts | 334° |
| 2026-05-08 07:57 | 37.80338 | 27.29068 | 17675 ft | 386 kts | 334° |
| 2026-05-08 07:57 | 37.82810 | 27.27713 | 18248 ft | 388 kts | 334° |
| 2026-05-08 07:58 | 37.85302 | 27.26346 | 18718 ft | 392 kts | 334° |
| 2026-05-08 07:58 | 37.87809 | 27.24970 | 19227 ft | 393 kts | 334° |
| 2026-05-08 07:58 | 37.90320 | 27.23590 | 19787 ft | 393 kts | 334° |
| 2026-05-08 07:58 | 37.92830 | 27.22211 | 20335 ft | 394 kts | 333° |
| 2026-05-08 07:59 | 37.95348 | 27.20825 | 20851 ft | 395 kts | 333° |
| 2026-05-08 07:59 | 37.97871 | 27.19435 | 21377 ft | 396 kts | 333° |
| 2026-05-08 07:59 | 38.00394 | 27.18045 | 21860 ft | 397 kts | 332° |
| 2026-05-08 07:59 | 38.02925 | 27.16649 | 22347 ft | 398 kts | 332° |
| 2026-05-08 08:00 | 38.05467 | 27.15246 | 22868 ft | 398 kts | 332° |
| 2026-05-08 08:00 | 38.08005 | 27.13844 | 23355 ft | 398 kts | 331° |
| 2026-05-08 08:00 | 38.10564 | 27.12428 | 23659 ft | 403 kts | 331° |
| 2026-05-08 08:00 | 38.13140 | 27.11001 | 24013 ft | 405 kts | 331° |
| 2026-05-08 08:01 | 38.15721 | 27.09573 | 24417 ft | 405 kts | 331° |
| 2026-05-08 08:01 | 38.18302 | 27.08143 | 24780 ft | 406 kts | 331° |
| 2026-05-08 08:01 | 38.20897 | 27.06704 | 25127 ft | 407 kts | 331° |
| 2026-05-08 08:01 | 38.23500 | 27.05259 | 25449 ft | 409 kts | 331° |
| 2026-05-08 08:02 | 38.26077 | 27.03828 | 25764 ft | 411 kts | 331° |
| 2026-05-08 08:02 | 38.28703 | 27.02369 | 26114 ft | 412 kts | 331° |
| 2026-05-08 08:02 | 38.31262 | 27.00763 | 26458 ft | 409 kts | 325° |
| 2026-05-08 08:02 | 38.33544 | 26.98791 | 26664 ft | 408 kts | 316° |
| 2026-05-08 08:03 | 38.35688 | 26.96422 | 26917 ft | 410 kts | 315° |
| 2026-05-08 08:03 | 38.37832 | 26.94017 | 27255 ft | 410 kts | 315° |
| 2026-05-08 08:03 | 38.39977 | 26.91615 | 27602 ft | 411 kts | 315° |
| 2026-05-08 08:03 | 38.42130 | 26.89213 | 27909 ft | 412 kts | 315° |
| 2026-05-08 08:04 | 38.44293 | 26.86807 | 28192 ft | 413 kts | 315° |
| 2026-05-08 08:04 | 38.46466 | 26.84394 | 28466 ft | 415 kts | 315° |
| 2026-05-08 08:04 | 38.48649 | 26.81973 | 28731 ft | 416 kts | 315° |
| 2026-05-08 08:04 | 38.50838 | 26.79545 | 29001 ft | 418 kts | 315° |
| 2026-05-08 08:05 | 38.53029 | 26.77114 | 29330 ft | 417 kts | 315° |
| 2026-05-08 08:05 | 38.55216 | 26.74686 | 29734 ft | 415 kts | 315° |
| 2026-05-08 08:05 | 38.57393 | 26.72267 | 30179 ft | 413 kts | 315° |
| 2026-05-08 08:05 | 38.59556 | 26.69861 | 30580 ft | 410 kts | 315° |
| 2026-05-08 08:06 | 38.61698 | 26.67477 | 30920 ft | 408 kts | 315° |
| 2026-05-08 08:06 | 38.63835 | 26.65094 | 31244 ft | 407 kts | 315° |
| 2026-05-08 08:06 | 38.65963 | 26.62720 | 31587 ft | 405 kts | 314° |
| 2026-05-08 08:06 | 38.68078 | 26.60359 | 31945 ft | 402 kts | 314° |
| 2026-05-08 08:07 | 38.70180 | 26.58010 | 32280 ft | 400 kts | 314° |
| 2026-05-08 08:07 | 38.72273 | 26.55670 | 32592 ft | 399 kts | 314° |
| 2026-05-08 08:07 | 38.74362 | 26.53330 | 32814 ft | 400 kts | 313° |
| 2026-05-08 08:07 | 38.76458 | 26.50980 | 33081 ft | 399 kts | 313° |
| 2026-05-08 08:08 | 38.78536 | 26.48652 | 33429 ft | 396 kts | 313° |
| 2026-05-08 08:08 | 38.80576 | 26.46364 | 33794 ft | 393 kts | 313° |
| 2026-05-08 08:08 | 38.82629 | 26.44060 | 34112 ft | 391 kts | 313° |
| 2026-05-08 08:08 | 38.84683 | 26.41775 | 34347 ft | 391 kts | 313° |
| 2026-05-08 08:09 | 38.86758 | 26.39523 | 34565 ft | 391 kts | 314° |
| 2026-05-08 08:09 | 38.88836 | 26.37290 | 34787 ft | 390 kts | 314° |
| 2026-05-08 08:09 | 38.90915 | 26.35060 | 35034 ft | 388 kts | 314° |
| 2026-05-08 08:09 | 38.92983 | 26.32840 | 35285 ft | 387 kts | 314° |
| 2026-05-08 08:10 | 38.95045 | 26.30619 | 35516 ft | 386 kts | 314° |
| 2026-05-08 08:10 | 38.97092 | 26.28407 | 35723 ft | 385 kts | 314° |
| 2026-05-08 08:10 | 38.99138 | 26.26194 | 35933 ft | 384 kts | 314° |
| 2026-05-08 08:10 | 39.01177 | 26.23985 | 36083 ft | 384 kts | 313° |
| 2026-05-08 08:11 | 39.03229 | 26.21756 | 36129 ft | 387 kts | 313° |
| 2026-05-08 08:11 | 39.05281 | 26.19526 | 36298 ft | 387 kts | 313° |
| 2026-05-08 08:11 | 39.07337 | 26.17293 | 36560 ft | 384 kts | 313° |
| 2026-05-08 08:11 | 39.09374 | 26.15080 | 36804 ft | 382 kts | 313° |
| 2026-05-08 08:12 | 39.11405 | 26.12869 | 36975 ft | 382 kts | 313° |
| 2026-05-08 08:12 | 39.13435 | 26.10658 | 37130 ft | 382 kts | 313° |
| 2026-05-08 08:12 | 39.15464 | 26.08445 | 37241 ft | 382 kts | 313° |
| 2026-05-08 08:12 | 39.17493 | 26.06230 | 37358 ft | 383 kts | 313° |
| 2026-05-08 08:13 | 39.19525 | 26.04011 | 37495 ft | 383 kts | 313° |
| 2026-05-08 08:13 | 39.21552 | 26.01796 | 37670 ft | 382 kts | 313° |
| 2026-05-08 08:13 | 39.23497 | 25.99669 | 37839 ft | 381 kts | 313° |
| 2026-05-08 08:14 | 39.27551 | 25.95227 | 37954 ft | 384 kts | 313° |
| 2026-05-08 08:14 | 39.29589 | 25.92993 | 38083 ft | 384 kts | 313° |
| 2026-05-08 08:14 | 39.31598 | 25.90789 | 38131 ft | 385 kts | 313° |
| 2026-05-08 08:15 | 39.35699 | 25.86283 | 38136 ft | 388 kts | 313° |
| 2026-05-08 08:15 | 39.39824 | 25.81744 | 38142 ft | 391 kts | 313° |
| 2026-05-08 08:16 | 39.43982 | 25.77163 | 38156 ft | 394 kts | 313° |
| 2026-05-08 08:16 | 39.48167 | 25.72544 | 38141 ft | 396 kts | 313° |
| 2026-05-08 08:17 | 39.52360 | 25.67909 | 38129 ft | 397 kts | 313° |
| 2026-05-08 08:17 | 39.56562 | 25.63257 | 38145 ft | 397 kts | 312° |
| 2026-05-08 08:18 | 39.60769 | 25.58591 | 38135 ft | 398 kts | 312° |
| 2026-05-08 08:18 | 39.64979 | 25.53913 | 38130 ft | 398 kts | 312° |
| 2026-05-08 08:19 | 39.69158 | 25.49263 | 38127 ft | 398 kts | 312° |
| 2026-05-08 08:19 | 39.73366 | 25.44573 | 38134 ft | 398 kts | 312° |
| 2026-05-08 08:20 | 39.77566 | 25.39882 | 38128 ft | 398 kts | 312° |
| 2026-05-08 08:20 | 39.81765 | 25.35185 | 38126 ft | 398 kts | 312° |
| 2026-05-08 08:21 | 39.85961 | 25.30483 | 38103 ft | 398 kts | 311° |
| 2026-05-08 08:21 | 39.90154 | 25.25777 | 38109 ft | 398 kts | 311° |
| 2026-05-08 08:22 | 39.94333 | 25.21034 | 38111 ft | 398 kts | 311° |
| 2026-05-08 08:22 | 39.98453 | 25.16222 | 38103 ft | 398 kts | 310° |
| 2026-05-08 08:23 | 40.02564 | 25.11398 | 38112 ft | 398 kts | 310° |
| 2026-05-08 08:23 | 40.06686 | 25.06565 | 38110 ft | 398 kts | 311° |
| 2026-05-08 08:24 | 40.10809 | 25.01730 | 38122 ft | 398 kts | 311° |
| 2026-05-08 08:24 | 40.14872 | 24.96958 | 38125 ft | 399 kts | 311° |
| 2026-05-08 08:25 | 40.18979 | 24.92129 | 38138 ft | 400 kts | 311° |
| 2026-05-08 08:25 | 40.23127 | 24.87241 | 38129 ft | 402 kts | 311° |
| 2026-05-08 08:26 | 40.27291 | 24.82327 | 38137 ft | 404 kts | 310° |
| 2026-05-08 08:26 | 40.31475 | 24.77380 | 38124 ft | 406 kts | 310° |
| 2026-05-08 08:27 | 40.35672 | 24.72410 | 38128 ft | 407 kts | 310° |
| 2026-05-08 08:27 | 40.39884 | 24.67414 | 38125 ft | 409 kts | 310° |
| 2026-05-08 08:28 | 40.44105 | 24.62399 | 38128 ft | 410 kts | 310° |
| 2026-05-08 08:28 | 40.48328 | 24.57372 | 38130 ft | 410 kts | 310° |
| 2026-05-08 08:29 | 40.52558 | 24.52328 | 38135 ft | 411 kts | 310° |
| 2026-05-08 08:29 | 40.56083 | 24.48116 | 38126 ft | 412 kts | 311° |
| 2026-05-08 08:30 | 40.60325 | 24.43042 | 38125 ft | 412 kts | 311° |
| 2026-05-08 08:30 | 40.66672 | 24.35433 | 38126 ft | 411 kts | 311° |
| 2026-05-08 08:31 | 40.70888 | 24.30366 | 38133 ft | 411 kts | 311° |
| 2026-05-08 08:31 | 40.75107 | 24.25285 | 38128 ft | 411 kts | 311° |
| 2026-05-08 08:32 | 40.79330 | 24.20190 | 38131 ft | 412 kts | 311° |
| 2026-05-08 08:32 | 40.83560 | 24.15078 | 38139 ft | 413 kts | 311° |
| 2026-05-08 08:33 | 40.87806 | 24.09937 | 38125 ft | 415 kts | 311° |
| 2026-05-08 08:33 | 40.92062 | 24.04774 | 38143 ft | 417 kts | 311° |
| 2026-05-08 08:34 | 40.96265 | 23.99668 | 38138 ft | 420 kts | 311° |
| 2026-05-08 08:34 | 41.00565 | 23.94434 | 38126 ft | 422 kts | 311° |
| 2026-05-08 08:35 | 41.04890 | 23.89160 | 38124 ft | 423 kts | 311° |
| 2026-05-08 08:35 | 41.09224 | 23.83866 | 38144 ft | 424 kts | 311° |
| 2026-05-08 08:36 | 41.13571 | 23.78545 | 38127 ft | 425 kts | 311° |
| 2026-05-08 08:36 | 41.17927 | 23.73202 | 38123 ft | 428 kts | 311° |
| 2026-05-08 08:37 | 41.22269 | 23.67867 | 38120 ft | 428 kts | 311° |
| 2026-05-08 08:37 | 41.26634 | 23.62495 | 38118 ft | 427 kts | 311° |
| 2026-05-08 08:38 | 41.30978 | 23.57137 | 38116 ft | 425 kts | 311° |
| 2026-05-08 08:38 | 41.35304 | 23.51790 | 38115 ft | 424 kts | 311° |
| 2026-05-08 08:39 | 41.39674 | 23.46503 | 38108 ft | 427 kts | 316° |
| 2026-05-08 08:39 | 41.44866 | 23.42461 | 38148 ft | 436 kts | 327° |
| 2026-05-08 08:40 | 41.50350 | 23.38960 | 38127 ft | 438 kts | 328° |
| 2026-05-08 08:40 | 41.55850 | 23.35434 | 38113 ft | 439 kts | 327° |
| 2026-05-08 08:41 | 41.61358 | 23.31851 | 38128 ft | 442 kts | 327° |
| 2026-05-08 08:41 | 41.66900 | 23.28217 | 38118 ft | 445 kts | 327° |
| 2026-05-08 08:42 | 41.72463 | 23.24560 | 38101 ft | 446 kts | 327° |
| 2026-05-08 08:42 | 41.78039 | 23.20888 | 38110 ft | 447 kts | 327° |
| 2026-05-08 08:43 | 41.83619 | 23.17207 | 38119 ft | 447 kts | 327° |
| 2026-05-08 08:43 | 41.89193 | 23.13523 | 38107 ft | 446 kts | 328° |
| 2026-05-08 08:44 | 41.94724 | 23.09859 | 38111 ft | 446 kts | 328° |
| 2026-05-08 08:44 | 42.00278 | 23.06173 | 38105 ft | 445 kts | 328° |
| 2026-05-08 08:45 | 42.05861 | 23.02461 | 38103 ft | 444 kts | 328° |
| 2026-05-08 08:45 | 42.11311 | 22.98830 | 38097 ft | 443 kts | 328° |
| 2026-05-08 08:46 | 42.16800 | 22.95166 | 38093 ft | 442 kts | 328° |
| 2026-05-08 08:46 | 42.22313 | 22.91478 | 38087 ft | 442 kts | 328° |
| 2026-05-08 08:47 | 42.27822 | 22.87785 | 38116 ft | 442 kts | 328° |
| 2026-05-08 08:47 | 42.33341 | 22.84079 | 38095 ft | 443 kts | 328° |
| 2026-05-08 08:48 | 42.38866 | 22.80360 | 38089 ft | 444 kts | 328° |
| 2026-05-08 08:48 | 42.44400 | 22.76630 | 38090 ft | 444 kts | 328° |
| 2026-05-08 08:49 | 42.49931 | 22.72894 | 38094 ft | 444 kts | 328° |
| 2026-05-08 08:49 | 42.55467 | 22.69146 | 38084 ft | 445 kts | 328° |
| 2026-05-08 08:50 | 42.61008 | 22.65388 | 38089 ft | 446 kts | 328° |
| 2026-05-08 08:50 | 42.66555 | 22.61618 | 38096 ft | 446 kts | 328° |
| 2026-05-08 08:51 | 42.72109 | 22.57836 | 38093 ft | 447 kts | 328° |
| 2026-05-08 08:51 | 42.77676 | 22.54037 | 38083 ft | 448 kts | 328° |
| 2026-05-08 08:52 | 42.83249 | 22.50223 | 38088 ft | 448 kts | 327° |
| 2026-05-08 08:52 | 42.88273 | 22.45488 | 38086 ft | 439 kts | 315° |
| 2026-05-08 08:53 | 42.92993 | 22.40194 | 38077 ft | 439 kts | 315° |
| 2026-05-08 08:53 | 42.97718 | 22.34894 | 38086 ft | 440 kts | 315° |
| 2026-05-08 08:54 | 43.02462 | 22.29620 | 38072 ft | 441 kts | 315° |
| 2026-05-08 08:54 | 43.07230 | 22.24335 | 38056 ft | 441 kts | 315° |
| 2026-05-08 08:55 | 43.11999 | 22.19045 | 38065 ft | 441 kts | 315° |
| 2026-05-08 08:55 | 43.16762 | 22.13750 | 38062 ft | 441 kts | 315° |
| 2026-05-08 08:56 | 43.21519 | 22.08450 | 38084 ft | 441 kts | 315° |
| 2026-05-08 08:56 | 43.26258 | 22.03158 | 38077 ft | 440 kts | 315° |
| 2026-05-08 08:57 | 43.30906 | 21.97958 | 38066 ft | 439 kts | 315° |
| 2026-05-08 08:57 | 43.35632 | 21.92660 | 38076 ft | 438 kts | 315° |
| 2026-05-08 08:58 | 43.40339 | 21.87371 | 38078 ft | 436 kts | 315° |
| 2026-05-08 08:58 | 43.45033 | 21.82085 | 38078 ft | 435 kts | 315° |
| 2026-05-08 08:59 | 43.49716 | 21.76801 | 38074 ft | 435 kts | 315° |
| 2026-05-08 08:59 | 43.54388 | 21.71518 | 38068 ft | 434 kts | 315° |
| 2026-05-08 09:00 | 43.59054 | 21.66231 | 38067 ft | 434 kts | 315° |
| 2026-05-08 09:00 | 43.63672 | 21.60988 | 38069 ft | 435 kts | 315° |
| 2026-05-08 09:01 | 43.68344 | 21.55672 | 38061 ft | 435 kts | 315° |
| 2026-05-08 09:01 | 43.73024 | 21.50336 | 38066 ft | 437 kts | 315° |
| 2026-05-08 09:02 | 43.77711 | 21.44981 | 38073 ft | 438 kts | 315° |
| 2026-05-08 09:02 | 43.82410 | 21.39602 | 38060 ft | 439 kts | 314° |
| 2026-05-08 09:03 | 43.87118 | 21.34200 | 38063 ft | 440 kts | 314° |
| 2026-05-08 09:03 | 43.91820 | 21.28795 | 38065 ft | 440 kts | 314° |
| 2026-05-08 09:04 | 43.96530 | 21.23369 | 38082 ft | 440 kts | 314° |
| 2026-05-08 09:04 | 44.01223 | 21.17949 | 38072 ft | 441 kts | 314° |
| 2026-05-08 09:05 | 44.05935 | 21.12498 | 38064 ft | 440 kts | 314° |
| 2026-05-08 09:05 | 44.10638 | 21.07045 | 38065 ft | 440 kts | 314° |
| 2026-05-08 09:06 | 44.15327 | 21.01597 | 38070 ft | 439 kts | 314° |
| 2026-05-08 09:06 | 44.19920 | 20.96247 | 38064 ft | 438 kts | 314° |
| 2026-05-08 09:07 | 44.24589 | 20.90798 | 38083 ft | 437 kts | 314° |
| 2026-05-08 09:07 | 44.29247 | 20.85350 | 38067 ft | 437 kts | 314° |
| 2026-05-08 09:08 | 44.33831 | 20.80060 | 38063 ft | 438 kts | 317° |
| 2026-05-08 09:08 | 44.38757 | 20.75026 | 38069 ft | 439 kts | 319° |
| 2026-05-08 09:09 | 44.43742 | 20.70079 | 38070 ft | 439 kts | 319° |
| 2026-05-08 09:09 | 44.48706 | 20.65088 | 38073 ft | 440 kts | 318° |
| 2026-05-08 09:10 | 44.53664 | 20.60050 | 38073 ft | 440 kts | 318° |
| 2026-05-08 09:10 | 44.58617 | 20.54997 | 38069 ft | 441 kts | 318° |
| 2026-05-08 09:11 | 44.63571 | 20.49932 | 38075 ft | 441 kts | 318° |
| 2026-05-08 09:11 | 44.68534 | 20.44848 | 38081 ft | 441 kts | 318° |
| 2026-05-08 09:12 | 44.73482 | 20.39769 | 38087 ft | 442 kts | 318° |
| 2026-05-08 09:12 | 44.78455 | 20.34653 | 38072 ft | 442 kts | 318° |
| 2026-05-08 09:13 | 44.83367 | 20.29480 | 38074 ft | 439 kts | 315° |
| 2026-05-08 09:13 | 44.88017 | 20.23941 | 38077 ft | 437 kts | 313° |
| 2026-05-08 09:14 | 44.92605 | 20.18330 | 38082 ft | 436 kts | 313° |
| 2026-05-08 09:14 | 44.97212 | 20.12744 | 38075 ft | 436 kts | 314° |
| 2026-05-08 09:15 | 45.01034 | 20.08133 | 38071 ft | 436 kts | 314° |
| 2026-05-08 09:15 | 45.06392 | 20.01667 | 38069 ft | 435 kts | 314° |
| 2026-05-08 09:16 | 45.10919 | 19.96189 | 38073 ft | 435 kts | 314° |
| 2026-05-08 09:16 | 45.15523 | 19.90603 | 38070 ft | 436 kts | 314° |
| 2026-05-08 09:17 | 45.19380 | 19.85915 | 38075 ft | 436 kts | 314° |
| 2026-05-08 09:17 | 45.23982 | 19.80311 | 38085 ft | 437 kts | 314° |
| 2026-05-08 09:18 | 45.28574 | 19.74663 | 38073 ft | 437 kts | 313° |
| 2026-05-08 09:18 | 45.33142 | 19.68962 | 38095 ft | 437 kts | 313° |
| 2026-05-08 09:19 | 45.37713 | 19.63240 | 38083 ft | 438 kts | 313° |
| 2026-05-08 09:19 | 45.42292 | 19.57504 | 38078 ft | 439 kts | 313° |
| 2026-05-08 09:20 | 45.46844 | 19.51794 | 38077 ft | 439 kts | 313° |
| 2026-05-08 09:20 | 45.51423 | 19.46038 | 38095 ft | 439 kts | 313° |
| 2026-05-08 09:21 | 45.56000 | 19.40270 | 38078 ft | 439 kts | 313° |
| 2026-05-08 09:23 | 45.71962 | 19.20055 | 38082 ft | 436 kts | 313° |
| 2026-05-08 09:23 | 45.76493 | 19.14287 | 38102 ft | 436 kts | 313° |
| 2026-05-08 09:24 | 45.81019 | 19.08512 | 38085 ft | 435 kts | 313° |
| 2026-05-08 09:24 | 45.85536 | 19.02735 | 38084 ft | 435 kts | 313° |
| 2026-05-08 09:25 | 45.89970 | 18.97052 | 38082 ft | 434 kts | 313° |
| 2026-05-08 09:25 | 45.94456 | 18.91271 | 38088 ft | 433 kts | 312° |
| 2026-05-08 09:26 | 45.98868 | 18.85382 | 38094 ft | 433 kts | 311° |
| 2026-05-08 09:26 | 46.03217 | 18.79510 | 38088 ft | 433 kts | 311° |
| 2026-05-08 09:27 | 46.07609 | 18.73582 | 38088 ft | 432 kts | 312° |
| 2026-05-08 09:27 | 46.12001 | 18.67656 | 38083 ft | 432 kts | 312° |
| 2026-05-08 09:28 | 46.16382 | 18.61736 | 38111 ft | 431 kts | 311° |
| 2026-05-08 09:28 | 46.20758 | 18.55810 | 38091 ft | 431 kts | 311° |
| 2026-05-08 09:29 | 46.25127 | 18.49880 | 38090 ft | 431 kts | 311° |
| 2026-05-08 09:29 | 46.29488 | 18.43947 | 38091 ft | 430 kts | 311° |
| 2026-05-08 09:30 | 46.33849 | 18.37999 | 38085 ft | 431 kts | 311° |
| 2026-05-08 09:30 | 46.38204 | 18.32046 | 38096 ft | 430 kts | 311° |
| 2026-05-08 09:31 | 46.42555 | 18.26086 | 38076 ft | 430 kts | 311° |
| 2026-05-08 09:31 | 46.46894 | 18.20128 | 38083 ft | 429 kts | 311° |
| 2026-05-08 09:32 | 46.51228 | 18.14164 | 38084 ft | 429 kts | 311° |
| 2026-05-08 09:32 | 46.55520 | 18.08242 | 38081 ft | 429 kts | 311° |
| 2026-05-08 09:33 | 46.59869 | 18.02229 | 38088 ft | 429 kts | 311° |
| 2026-05-08 09:33 | 46.64118 | 17.96340 | 38086 ft | 430 kts | 311° |
| 2026-05-08 09:34 | 46.68415 | 17.90370 | 38081 ft | 430 kts | 311° |
| 2026-05-08 09:34 | 46.72741 | 17.84348 | 38084 ft | 430 kts | 311° |
| 2026-05-08 09:35 | 46.77068 | 17.78308 | 38096 ft | 430 kts | 310° |
| 2026-05-08 09:35 | 46.81401 | 17.72246 | 38082 ft | 433 kts | 310° |
| 2026-05-08 09:36 | 46.85743 | 17.66157 | 38090 ft | 433 kts | 310° |
| 2026-05-08 09:36 | 46.90090 | 17.60048 | 38087 ft | 434 kts | 310° |
| 2026-05-08 09:37 | 46.94438 | 17.53922 | 38086 ft | 434 kts | 310° |
| 2026-05-08 09:37 | 46.98786 | 17.47796 | 38081 ft | 434 kts | 311° |
| 2026-05-08 09:38 | 47.03352 | 17.41982 | 38078 ft | 437 kts | 314° |
| 2026-05-08 09:38 | 47.08035 | 17.36299 | 38076 ft | 437 kts | 315° |
| 2026-05-08 09:39 | 47.12705 | 17.30584 | 38096 ft | 437 kts | 314° |
| 2026-05-08 09:39 | 47.17350 | 17.24833 | 38090 ft | 437 kts | 314° |
| 2026-05-08 09:40 | 47.21984 | 17.19065 | 38090 ft | 436 kts | 314° |
| 2026-05-08 09:40 | 47.26583 | 17.13324 | 38088 ft | 436 kts | 314° |
| 2026-05-08 09:41 | 47.31205 | 17.07543 | 38093 ft | 436 kts | 314° |
| 2026-05-08 09:41 | 47.35819 | 17.01757 | 38092 ft | 435 kts | 314° |
| 2026-05-08 09:42 | 47.40360 | 16.96050 | 38101 ft | 435 kts | 314° |
| 2026-05-08 09:42 | 47.44970 | 16.90242 | 38093 ft | 435 kts | 314° |
| 2026-05-08 09:43 | 47.49582 | 16.84418 | 38091 ft | 435 kts | 314° |
| 2026-05-08 09:43 | 47.54183 | 16.78596 | 38094 ft | 435 kts | 314° |
| 2026-05-08 09:44 | 47.58595 | 16.72520 | 38095 ft | 430 kts | 307° |
| 2026-05-08 09:44 | 47.62538 | 16.65866 | 38089 ft | 429 kts | 306° |
| 2026-05-08 09:45 | 47.66436 | 16.59152 | 38095 ft | 430 kts | 306° |
| 2026-05-08 09:45 | 47.70357 | 16.52462 | 38103 ft | 430 kts | 306° |
| 2026-05-08 09:46 | 47.74298 | 16.45781 | 38089 ft | 430 kts | 306° |
| 2026-05-08 09:46 | 47.78246 | 16.39091 | 38095 ft | 431 kts | 306° |
| 2026-05-08 09:47 | 47.82193 | 16.32388 | 38094 ft | 431 kts | 306° |
| 2026-05-08 09:47 | 47.86113 | 16.25714 | 38099 ft | 431 kts | 306° |
| 2026-05-08 09:48 | 47.90059 | 16.18977 | 38091 ft | 432 kts | 306° |
| 2026-05-08 09:48 | 47.94004 | 16.12223 | 38117 ft | 432 kts | 306° |
| 2026-05-08 09:49 | 47.97950 | 16.05451 | 38100 ft | 433 kts | 306° |
| 2026-05-08 09:49 | 48.01820 | 15.98793 | 38097 ft | 433 kts | 306° |
| 2026-05-08 09:50 | 48.05766 | 15.91986 | 38097 ft | 434 kts | 306° |
| 2026-05-08 09:50 | 48.09717 | 15.85154 | 38090 ft | 435 kts | 306° |
| 2026-05-08 09:51 | 48.13669 | 15.78303 | 38099 ft | 435 kts | 306° |
| 2026-05-08 09:51 | 48.17616 | 15.71443 | 38086 ft | 435 kts | 306° |
| 2026-05-08 09:52 | 48.21564 | 15.64563 | 38085 ft | 435 kts | 306° |
| 2026-05-08 09:52 | 48.25507 | 15.57674 | 38095 ft | 436 kts | 306° |
| 2026-05-08 09:53 | 48.29449 | 15.50769 | 38092 ft | 436 kts | 306° |
| 2026-05-08 09:53 | 48.33393 | 15.43843 | 38100 ft | 436 kts | 306° |
| 2026-05-08 09:54 | 48.37352 | 15.36870 | 38082 ft | 441 kts | 306° |
| 2026-05-08 09:54 | 48.41349 | 15.29812 | 38082 ft | 445 kts | 306° |
| 2026-05-08 09:55 | 48.45366 | 15.22702 | 38085 ft | 447 kts | 306° |
| 2026-05-08 09:55 | 48.49391 | 15.15559 | 38090 ft | 447 kts | 306° |
| 2026-05-08 09:56 | 48.53418 | 15.08395 | 38103 ft | 448 kts | 306° |
| 2026-05-08 09:56 | 48.57440 | 15.01218 | 38087 ft | 448 kts | 306° |
| 2026-05-08 09:57 | 48.63373 | 14.90596 | 38093 ft | 446 kts | 306° |
| 2026-05-08 09:57 | 48.67394 | 14.83371 | 38089 ft | 446 kts | 306° |
| 2026-05-08 09:58 | 48.71357 | 14.76233 | 38083 ft | 445 kts | 306° |
| 2026-05-08 09:58 | 48.75350 | 14.69020 | 38092 ft | 445 kts | 306° |
| 2026-05-08 09:59 | 48.79301 | 14.61863 | 38085 ft | 445 kts | 306° |
| 2026-05-08 09:59 | 48.83267 | 14.54661 | 38101 ft | 445 kts | 306° |
| 2026-05-08 10:00 | 48.87232 | 14.47440 | 38087 ft | 445 kts | 306° |
| 2026-05-08 10:00 | 48.91190 | 14.40213 | 38092 ft | 445 kts | 306° |
| 2026-05-08 10:01 | 48.95133 | 14.32974 | 38082 ft | 444 kts | 305° |
| 2026-05-08 10:01 | 48.98856 | 14.25491 | 38087 ft | 443 kts | 302° |
| 2026-05-08 10:02 | 49.02476 | 14.17927 | 38093 ft | 443 kts | 303° |
| 2026-05-08 10:02 | 49.06118 | 14.10350 | 38083 ft | 443 kts | 303° |
| 2026-05-08 10:03 | 49.09153 | 14.04064 | 38086 ft | 443 kts | 303° |
| 2026-05-08 10:03 | 49.12752 | 13.96611 | 38100 ft | 443 kts | 303° |
| 2026-05-08 10:04 | 49.16405 | 13.89023 | 38094 ft | 443 kts | 303° |
| 2026-05-08 10:04 | 49.20047 | 13.81433 | 38088 ft | 443 kts | 303° |
| 2026-05-08 10:05 | 49.23682 | 13.73836 | 38086 ft | 442 kts | 303° |
| 2026-05-08 10:05 | 49.27313 | 13.66230 | 38089 ft | 442 kts | 303° |
| 2026-05-08 10:06 | 49.31431 | 13.59201 | 38108 ft | 446 kts | 314° |
| 2026-05-08 10:06 | 49.36052 | 13.52827 | 38105 ft | 447 kts | 314° |
| 2026-05-08 10:07 | 49.40675 | 13.46447 | 38116 ft | 447 kts | 314° |
| 2026-05-08 10:07 | 49.45271 | 13.40021 | 38119 ft | 447 kts | 314° |
| 2026-05-08 10:08 | 49.49859 | 13.33555 | 38118 ft | 447 kts | 314° |
| 2026-05-08 10:08 | 49.54400 | 13.27132 | 38128 ft | 446 kts | 314° |
| 2026-05-08 10:09 | 49.58970 | 13.20651 | 38128 ft | 446 kts | 314° |
| 2026-05-08 10:09 | 49.63534 | 13.14164 | 38132 ft | 446 kts | 314° |
| 2026-05-08 10:10 | 49.68095 | 13.07662 | 38122 ft | 446 kts | 314° |
| 2026-05-08 10:10 | 49.72652 | 13.01150 | 38109 ft | 446 kts | 314° |
| 2026-05-08 10:11 | 49.77131 | 12.94732 | 38106 ft | 446 kts | 314° |
| 2026-05-08 10:11 | 49.81677 | 12.88201 | 38112 ft | 446 kts | 314° |
| 2026-05-08 10:12 | 49.86224 | 12.81651 | 38111 ft | 446 kts | 314° |
| 2026-05-08 10:12 | 49.90767 | 12.75088 | 38112 ft | 446 kts | 314° |
| 2026-05-08 10:13 | 49.95307 | 12.68513 | 38134 ft | 446 kts | 314° |
| 2026-05-08 10:13 | 49.99846 | 12.61921 | 38123 ft | 447 kts | 314° |
| 2026-05-08 10:14 | 50.04379 | 12.55318 | 38131 ft | 447 kts | 313° |
| 2026-05-08 10:14 | 50.08919 | 12.48688 | 38119 ft | 448 kts | 313° |
| 2026-05-08 10:15 | 50.13456 | 12.42046 | 38123 ft | 447 kts | 313° |
| 2026-05-08 10:15 | 50.17748 | 12.35078 | 38133 ft | 442 kts | 302° |
| 2026-05-08 10:16 | 50.20617 | 12.26688 | 38121 ft | 437 kts | 287° |
| 2026-05-08 10:16 | 50.22489 | 12.17665 | 38137 ft | 437 kts | 285° |
| 2026-05-08 10:17 | 50.24310 | 12.08661 | 38128 ft | 438 kts | 285° |
| 2026-05-08 10:17 | 50.26138 | 11.99730 | 38132 ft | 438 kts | 285° |
| 2026-05-08 10:18 | 50.28004 | 11.90676 | 38138 ft | 438 kts | 286° |
| 2026-05-08 10:18 | 50.29871 | 11.81610 | 38130 ft | 438 kts | 285° |
| 2026-05-08 10:19 | 50.31730 | 11.72540 | 38129 ft | 438 kts | 285° |
| 2026-05-08 10:20 | 50.34504 | 11.58920 | 38145 ft | 438 kts | 285° |
| 2026-05-08 10:20 | 50.36314 | 11.49983 | 38124 ft | 438 kts | 285° |
| 2026-05-08 10:21 | 50.38185 | 11.40700 | 38145 ft | 438 kts | 285° |
| 2026-05-08 10:21 | 50.40014 | 11.31587 | 38139 ft | 438 kts | 285° |
| 2026-05-08 10:22 | 50.41835 | 11.22468 | 38130 ft | 438 kts | 285° |
| 2026-05-08 10:22 | 50.43650 | 11.13339 | 38147 ft | 439 kts | 285° |
| 2026-05-08 10:23 | 50.45460 | 11.04188 | 38135 ft | 439 kts | 285° |
| 2026-05-08 10:23 | 50.47236 | 10.95170 | 38133 ft | 439 kts | 285° |
| 2026-05-08 10:24 | 50.49021 | 10.86061 | 38135 ft | 440 kts | 285° |
| 2026-05-08 10:24 | 50.50823 | 10.76820 | 38135 ft | 440 kts | 285° |
| 2026-05-08 10:25 | 50.52596 | 10.67688 | 38134 ft | 440 kts | 285° |
| 2026-05-08 10:25 | 50.54372 | 10.58491 | 38129 ft | 440 kts | 285° |
| 2026-05-08 10:26 | 50.56141 | 10.49293 | 38134 ft | 439 kts | 284° |
| 2026-05-08 10:26 | 50.57901 | 10.40092 | 38131 ft | 439 kts | 284° |
| 2026-05-08 10:27 | 50.59657 | 10.30866 | 38130 ft | 439 kts | 284° |
| 2026-05-08 10:27 | 50.61404 | 10.21645 | 38136 ft | 439 kts | 284° |
| 2026-05-08 10:28 | 50.63142 | 10.12426 | 38128 ft | 439 kts | 284° |
| 2026-05-08 10:28 | 50.64874 | 10.03197 | 38137 ft | 439 kts | 284° |
| 2026-05-08 10:29 | 50.66570 | 9.94109 | 38132 ft | 440 kts | 284° |
| 2026-05-08 10:29 | 50.68288 | 9.84861 | 38137 ft | 440 kts | 284° |
| 2026-05-08 10:30 | 50.69999 | 9.75605 | 38135 ft | 440 kts | 284° |
| 2026-05-08 10:30 | 50.71689 | 9.66425 | 38142 ft | 440 kts | 284° |
| 2026-05-08 10:31 | 50.73756 | 9.57322 | 38130 ft | 444 kts | 296° |
| 2026-05-08 10:31 | 50.76910 | 9.49006 | 38140 ft | 445 kts | 299° |
| 2026-05-08 10:32 | 50.80145 | 9.40668 | 38143 ft | 445 kts | 298° |
| 2026-05-08 10:32 | 50.83352 | 9.32291 | 38146 ft | 445 kts | 298° |
| 2026-05-08 10:33 | 50.86531 | 9.23894 | 38146 ft | 445 kts | 298° |
| 2026-05-08 10:33 | 50.89699 | 9.15473 | 38148 ft | 445 kts | 298° |
| 2026-05-08 10:34 | 50.92859 | 9.07044 | 38151 ft | 445 kts | 298° |
| 2026-05-08 10:34 | 50.95964 | 8.98735 | 38148 ft | 445 kts | 298° |
| 2026-05-08 10:35 | 50.99116 | 8.90275 | 38144 ft | 445 kts | 298° |
| 2026-05-08 10:35 | 51.02254 | 8.81826 | 38145 ft | 445 kts | 298° |
| 2026-05-08 10:36 | 51.05393 | 8.73348 | 38141 ft | 445 kts | 298° |
| 2026-05-08 10:36 | 51.08525 | 8.64857 | 38138 ft | 445 kts | 298° |
| 2026-05-08 10:37 | 51.11651 | 8.56357 | 38139 ft | 445 kts | 298° |
| 2026-05-08 10:37 | 51.14768 | 8.47852 | 38135 ft | 445 kts | 298° |
| 2026-05-08 10:38 | 51.17879 | 8.39336 | 38139 ft | 445 kts | 298° |
| 2026-05-08 10:38 | 51.20965 | 8.30857 | 38128 ft | 445 kts | 297° |
| 2026-05-08 10:39 | 51.24063 | 8.22320 | 38131 ft | 445 kts | 297° |
| 2026-05-08 10:39 | 51.27160 | 8.13756 | 38119 ft | 445 kts | 297° |
| 2026-05-08 10:40 | 51.30250 | 8.05182 | 38137 ft | 445 kts | 297° |
| 2026-05-08 10:40 | 51.33285 | 7.96733 | 38126 ft | 446 kts | 297° |
| 2026-05-08 10:41 | 51.36360 | 7.88143 | 38126 ft | 446 kts | 297° |
| 2026-05-08 10:41 | 51.39438 | 7.79517 | 38127 ft | 446 kts | 297° |
| 2026-05-08 10:42 | 51.42509 | 7.70882 | 38134 ft | 446 kts | 297° |
| 2026-05-08 10:42 | 51.45574 | 7.62232 | 38136 ft | 446 kts | 297° |
| 2026-05-08 10:43 | 51.48634 | 7.53567 | 38131 ft | 446 kts | 297° |
| 2026-05-08 10:43 | 51.51686 | 7.44895 | 38122 ft | 446 kts | 297° |
| 2026-05-08 10:44 | 51.54726 | 7.36229 | 38119 ft | 446 kts | 297° |
| 2026-05-08 10:44 | 51.57735 | 7.27619 | 38120 ft | 446 kts | 297° |
| 2026-05-08 10:45 | 51.60788 | 7.18855 | 38131 ft | 446 kts | 297° |
| 2026-05-08 10:45 | 51.63817 | 7.10128 | 38123 ft | 446 kts | 297° |
| 2026-05-08 10:46 | 51.66838 | 7.01395 | 38122 ft | 446 kts | 297° |
| 2026-05-08 10:46 | 51.69795 | 6.92818 | 38132 ft | 446 kts | 297° |
| 2026-05-08 10:47 | 51.72783 | 6.84123 | 38131 ft | 446 kts | 297° |
| 2026-05-08 10:47 | 51.75784 | 6.75357 | 38124 ft | 446 kts | 297° |
| 2026-05-08 10:48 | 51.78777 | 6.66581 | 38122 ft | 446 kts | 297° |
| 2026-05-08 10:48 | 51.81763 | 6.57799 | 38124 ft | 446 kts | 297° |
| 2026-05-08 10:49 | 51.84744 | 6.48999 | 38124 ft | 446 kts | 296° |
| 2026-05-08 10:49 | 51.87235 | 6.41622 | 38137 ft | 446 kts | 296° |
| 2026-05-08 10:50 | 51.90204 | 6.32799 | 38125 ft | 446 kts | 296° |
| 2026-05-08 10:50 | 51.93646 | 6.22534 | 38121 ft | 446 kts | 296° |
| 2026-05-08 10:51 | 51.96123 | 6.15121 | 38122 ft | 446 kts | 296° |
| 2026-05-08 10:51 | 51.99071 | 6.06266 | 38119 ft | 446 kts | 296° |
| 2026-05-08 10:52 | 52.01958 | 5.97565 | 38121 ft | 446 kts | 296° |
| 2026-05-08 10:52 | 52.04879 | 5.88735 | 38134 ft | 446 kts | 296° |
| 2026-05-08 10:53 | 52.07853 | 5.79805 | 38126 ft | 446 kts | 298° |
| 2026-05-08 10:53 | 52.11031 | 5.71133 | 38131 ft | 447 kts | 299° |
| 2026-05-08 10:54 | 52.14252 | 5.62490 | 38126 ft | 446 kts | 299° |
| 2026-05-08 10:54 | 52.17437 | 5.53805 | 38132 ft | 447 kts | 299° |
| 2026-05-08 10:55 | 52.20580 | 5.45146 | 38127 ft | 447 kts | 298° |
| 2026-05-08 10:55 | 52.23731 | 5.36422 | 38130 ft | 447 kts | 298° |
| 2026-05-08 10:56 | 52.26881 | 5.27675 | 38126 ft | 447 kts | 298° |
| 2026-05-08 10:56 | 52.30025 | 5.18919 | 38119 ft | 447 kts | 298° |
| 2026-05-08 10:57 | 52.33159 | 5.10163 | 38125 ft | 446 kts | 298° |
| 2026-05-08 10:57 | 52.37431 | 4.96842 | 38127 ft | 445 kts | 295° |
| 2026-05-08 10:58 | 52.40187 | 4.87756 | 38126 ft | 445 kts | 295° |
| 2026-05-08 10:58 | 52.42956 | 4.78685 | 38146 ft | 445 kts | 295° |
| 2026-05-08 10:59 | 52.45737 | 4.69610 | 38127 ft | 446 kts | 295° |
| 2026-05-08 10:59 | 52.48517 | 4.60531 | 38135 ft | 445 kts | 295° |
| 2026-05-08 11:00 | 52.51289 | 4.51442 | 38134 ft | 445 kts | 295° |
| 2026-05-08 11:00 | 52.54054 | 4.42340 | 38132 ft | 445 kts | 295° |
| 2026-05-08 11:01 | 52.56812 | 4.33224 | 38135 ft | 445 kts | 295° |
| 2026-05-08 11:01 | 52.59514 | 4.24259 | 38143 ft | 445 kts | 295° |
| 2026-05-08 11:02 | 52.63627 | 4.10549 | 38144 ft | 445 kts | 295° |
| 2026-05-08 11:03 | 52.66360 | 4.01398 | 38142 ft | 445 kts | 294° |
| 2026-05-08 11:03 | 52.69039 | 3.92390 | 38150 ft | 446 kts | 294° |
| 2026-05-08 11:04 | 52.71740 | 3.83273 | 38154 ft | 446 kts | 294° |
| 2026-05-08 11:04 | 52.74456 | 3.74073 | 38144 ft | 446 kts | 294° |
| 2026-05-08 11:05 | 52.77163 | 3.64866 | 38147 ft | 446 kts | 294° |
| 2026-05-08 11:05 | 52.79864 | 3.55643 | 38150 ft | 446 kts | 294° |
| 2026-05-08 11:06 | 52.82558 | 3.46412 | 38159 ft | 446 kts | 294° |
| 2026-05-08 11:06 | 52.85247 | 3.37158 | 38138 ft | 446 kts | 294° |
| 2026-05-08 11:07 | 52.87926 | 3.27904 | 38139 ft | 446 kts | 294° |
| 2026-05-08 11:07 | 52.90596 | 3.18647 | 38133 ft | 446 kts | 294° |
| 2026-05-08 11:08 | 52.92588 | 3.08986 | 38151 ft | 442 kts | 281° |
| 2026-05-08 11:08 | 52.93829 | 2.99185 | 38155 ft | 442 kts | 281° |
| 2026-05-08 11:09 | 52.95088 | 2.89191 | 38145 ft | 443 kts | 281° |
| 2026-05-08 11:09 | 52.96374 | 2.79194 | 38145 ft | 443 kts | 281° |
| 2026-05-08 11:10 | 52.97666 | 2.69207 | 38147 ft | 443 kts | 281° |
| 2026-05-08 11:10 | 52.98952 | 2.59203 | 38149 ft | 443 kts | 281° |
| 2026-05-08 11:11 | 53.00227 | 2.49210 | 38142 ft | 443 kts | 281° |
| 2026-05-08 11:11 | 53.01495 | 2.39193 | 38142 ft | 443 kts | 281° |
| 2026-05-08 11:12 | 53.02746 | 2.29238 | 38141 ft | 443 kts | 281° |
| 2026-05-08 11:12 | 53.03997 | 2.19213 | 38142 ft | 443 kts | 281° |
| 2026-05-08 11:13 | 53.05240 | 2.09190 | 38144 ft | 443 kts | 280° |
| 2026-05-08 11:13 | 53.06454 | 1.99327 | 38149 ft | 443 kts | 280° |
| 2026-05-08 11:14 | 53.07682 | 1.89295 | 38147 ft | 442 kts | 280° |
| 2026-05-08 11:14 | 53.08901 | 1.79268 | 38144 ft | 442 kts | 280° |
| 2026-05-08 11:14 | 53.09509 | 1.74230 | 37807 ft | 446 kts | 280° |
| 2026-05-08 11:15 | 53.10118 | 1.69177 | 37479 ft | 445 kts | 280° |
| 2026-05-08 11:15 | 53.10722 | 1.64138 | 37081 ft | 442 kts | 281° |
| 2026-05-08 11:15 | 53.11318 | 1.59153 | 36652 ft | 438 kts | 281° |
| 2026-05-08 11:15 | 53.11908 | 1.54193 | 36255 ft | 435 kts | 281° |
| 2026-05-08 11:16 | 53.12493 | 1.49259 | 35854 ft | 433 kts | 281° |
| 2026-05-08 11:16 | 53.13073 | 1.44353 | 35443 ft | 431 kts | 282° |
| 2026-05-08 11:16 | 53.13648 | 1.39462 | 35030 ft | 429 kts | 282° |
| 2026-05-08 11:16 | 53.14219 | 1.34595 | 34624 ft | 428 kts | 282° |
| 2026-05-08 11:17 | 53.14785 | 1.29746 | 34214 ft | 426 kts | 282° |
| 2026-05-08 11:17 | 53.15347 | 1.24914 | 33743 ft | 424 kts | 282° |
| 2026-05-08 11:17 | 53.15907 | 1.20088 | 33304 ft | 426 kts | 282° |
| 2026-05-08 11:17 | 53.16470 | 1.15224 | 32873 ft | 428 kts | 282° |
| 2026-05-08 11:18 | 53.17032 | 1.10341 | 32448 ft | 430 kts | 282° |
| 2026-05-08 11:18 | 53.17596 | 1.05426 | 32022 ft | 432 kts | 282° |
| 2026-05-08 11:18 | 53.18160 | 1.00490 | 31585 ft | 434 kts | 282° |
| 2026-05-08 11:18 | 53.18704 | 0.95699 | 31181 ft | 435 kts | 282° |
| 2026-05-08 11:19 | 53.19268 | 0.90728 | 30762 ft | 437 kts | 282° |
| 2026-05-08 11:19 | 53.19830 | 0.85744 | 30340 ft | 439 kts | 282° |
| 2026-05-08 11:19 | 53.20394 | 0.80729 | 29860 ft | 441 kts | 282° |
| 2026-05-08 11:19 | 53.20958 | 0.75692 | 29366 ft | 443 kts | 281° |
| 2026-05-08 11:20 | 53.21522 | 0.70640 | 28893 ft | 439 kts | 281° |
| 2026-05-08 11:20 | 53.22074 | 0.65674 | 28446 ft | 432 kts | 281° |
| 2026-05-08 11:20 | 53.22619 | 0.60751 | 27981 ft | 431 kts | 281° |
| 2026-05-08 11:20 | 53.23160 | 0.55843 | 27534 ft | 429 kts | 281° |
| 2026-05-08 11:21 | 53.23690 | 0.51027 | 27095 ft | 427 kts | 280° |
| 2026-05-08 11:21 | 53.24224 | 0.46159 | 26659 ft | 425 kts | 280° |
| 2026-05-08 11:21 | 53.24752 | 0.41317 | 26222 ft | 423 kts | 279° |
| 2026-05-08 11:21 | 53.25272 | 0.36499 | 25787 ft | 421 kts | 279° |
| 2026-05-08 11:22 | 53.25785 | 0.31705 | 25358 ft | 418 kts | 279° |
| 2026-05-08 11:22 | 53.26294 | 0.26934 | 24923 ft | 416 kts | 279° |
| 2026-05-08 11:22 | 53.26797 | 0.22200 | 24495 ft | 413 kts | 279° |
| 2026-05-08 11:22 | 53.27244 | 0.17995 | 24113 ft | 411 kts | 278° |
| 2026-05-08 11:23 | 53.27493 | 0.15646 | 23896 ft | 410 kts | 278° |
| 2026-05-08 11:23 | 53.27740 | 0.13306 | 23689 ft | 408 kts | 278° |
| 2026-05-08 11:23 | 53.27986 | 0.10978 | 23428 ft | 405 kts | 278° |
| 2026-05-08 11:23 | 53.28229 | 0.08668 | 23200 ft | 402 kts | 278° |
| 2026-05-08 11:24 | 53.28473 | 0.06375 | 22967 ft | 400 kts | 279° |
| 2026-05-08 11:24 | 53.28776 | 0.04107 | 22737 ft | 400 kts | 283° |
| 2026-05-08 11:24 | 53.29180 | 0.01885 | 22385 ft | 401 kts | 288° |
| 2026-05-08 11:24 | 53.29703 | -0.00194 | 22133 ft | 402 kts | 294° |
| 2026-05-08 11:25 | 53.30320 | -0.02289 | 21758 ft | 402 kts | 294° |
| 2026-05-08 11:25 | 53.30942 | -0.04366 | 21576 ft | 397 kts | 294° |
| 2026-05-08 11:25 | 53.31561 | -0.06430 | 21326 ft | 396 kts | 294° |
| 2026-05-08 11:25 | 53.32176 | -0.08480 | 21108 ft | 393 kts | 294° |
| 2026-05-08 11:26 | 53.32776 | -0.10492 | 20897 ft | 391 kts | 294° |
| 2026-05-08 11:26 | 53.33378 | -0.12521 | 20699 ft | 388 kts | 294° |
| 2026-05-08 11:26 | 53.33974 | -0.14541 | 20495 ft | 386 kts | 294° |
| 2026-05-08 11:26 | 53.34567 | -0.16558 | 20294 ft | 386 kts | 294° |
| 2026-05-08 11:27 | 53.35156 | -0.18576 | 20097 ft | 387 kts | 294° |
| 2026-05-08 11:27 | 53.35748 | -0.20607 | 19910 ft | 389 kts | 294° |
| 2026-05-08 11:27 | 53.36340 | -0.22645 | 19707 ft | 390 kts | 294° |
| 2026-05-08 11:27 | 53.36932 | -0.24686 | 19499 ft | 389 kts | 294° |
| 2026-05-08 11:28 | 53.37522 | -0.26722 | 19312 ft | 388 kts | 293° |
| 2026-05-08 11:28 | 53.38110 | -0.28750 | 19112 ft | 386 kts | 293° |
| 2026-05-08 11:28 | 53.38696 | -0.30775 | 18917 ft | 385 kts | 293° |
| 2026-05-08 11:28 | 53.39277 | -0.32788 | 18725 ft | 384 kts | 293° |
| 2026-05-08 11:29 | 53.39858 | -0.34797 | 18517 ft | 383 kts | 293° |
| 2026-05-08 11:29 | 53.40436 | -0.36800 | 18327 ft | 382 kts | 293° |
| 2026-05-08 11:29 | 53.41013 | -0.38801 | 18109 ft | 381 kts | 293° |
| 2026-05-08 11:29 | 53.41588 | -0.40796 | 17901 ft | 380 kts | 293° |
| 2026-05-08 11:30 | 53.42161 | -0.42784 | 17680 ft | 379 kts | 293° |
| 2026-05-08 11:30 | 53.42732 | -0.44767 | 17479 ft | 377 kts | 293° |
| 2026-05-08 11:30 | 53.43302 | -0.46749 | 17272 ft | 376 kts | 293° |
| 2026-05-08 11:30 | 53.43871 | -0.48725 | 17099 ft | 375 kts | 293° |
| 2026-05-08 11:31 | 53.44433 | -0.50683 | 16907 ft | 374 kts | 293° |
| 2026-05-08 11:31 | 53.44996 | -0.52645 | 16719 ft | 373 kts | 293° |
| 2026-05-08 11:31 | 53.45558 | -0.54602 | 16524 ft | 372 kts | 293° |
| 2026-05-08 11:31 | 53.46117 | -0.56554 | 16338 ft | 371 kts | 293° |
| 2026-05-08 11:32 | 53.46675 | -0.58502 | 16146 ft | 370 kts | 293° |
| 2026-05-08 11:32 | 53.47231 | -0.60449 | 15958 ft | 369 kts | 293° |
| 2026-05-08 11:32 | 53.47784 | -0.62390 | 15760 ft | 369 kts | 293° |
| 2026-05-08 11:32 | 53.48337 | -0.64331 | 15576 ft | 368 kts | 293° |
| 2026-05-08 11:33 | 53.48887 | -0.66267 | 15389 ft | 367 kts | 293° |
| 2026-05-08 11:33 | 53.49437 | -0.68201 | 15200 ft | 366 kts | 293° |
| 2026-05-08 11:33 | 53.49986 | -0.70129 | 15019 ft | 366 kts | 293° |
| 2026-05-08 11:33 | 53.50533 | -0.72054 | 14832 ft | 365 kts | 293° |
| 2026-05-08 11:34 | 53.51079 | -0.73979 | 14654 ft | 364 kts | 293° |
| 2026-05-08 11:34 | 53.51623 | -0.75898 | 14456 ft | 364 kts | 293° |
| 2026-05-08 11:34 | 53.52159 | -0.77788 | 14279 ft | 363 kts | 293° |
| 2026-05-08 11:34 | 53.52701 | -0.79702 | 14070 ft | 363 kts | 293° |
| 2026-05-08 11:35 | 53.53245 | -0.81618 | 13805 ft | 364 kts | 294° |
| 2026-05-08 11:35 | 53.53790 | -0.83535 | 13549 ft | 363 kts | 294° |
| 2026-05-08 11:35 | 53.54333 | -0.85445 | 13338 ft | 361 kts | 294° |
| 2026-05-08 11:35 | 53.54873 | -0.87342 | 13129 ft | 360 kts | 294° |
| 2026-05-08 11:36 | 53.55411 | -0.89236 | 12925 ft | 358 kts | 294° |
| 2026-05-08 11:36 | 53.55774 | -0.90514 | 12794 ft | 357 kts | 294° |
| 2026-05-08 11:36 | 53.56307 | -0.92391 | 12590 ft | 355 kts | 294° |
| 2026-05-08 11:36 | 53.56829 | -0.94233 | 12400 ft | 352 kts | 294° |
| 2026-05-08 11:37 | 53.57362 | -0.96115 | 12213 ft | 350 kts | 294° |
| 2026-05-08 11:37 | 53.57876 | -0.97928 | 12032 ft | 347 kts | 294° |
| 2026-05-08 11:37 | 53.58394 | -0.99758 | 11797 ft | 345 kts | 294° |
| 2026-05-08 11:37 | 53.58895 | -1.01534 | 11531 ft | 345 kts | 294° |
| 2026-05-08 11:38 | 53.59409 | -1.03356 | 11248 ft | 345 kts | 294° |
| 2026-05-08 11:38 | 53.59923 | -1.05180 | 10997 ft | 345 kts | 294° |
| 2026-05-08 11:38 | 53.60478 | -1.06961 | 10904 ft | 341 kts | 300° |
| 2026-05-08 11:38 | 53.61176 | -1.08558 | 10863 ft | 337 kts | 310° |
| 2026-05-08 11:39 | 53.61988 | -1.09957 | 10824 ft | 331 kts | 315° |
| 2026-05-08 11:39 | 53.62835 | -1.11251 | 10782 ft | 326 kts | 316° |
| 2026-05-08 11:39 | 53.63685 | -1.12484 | 10742 ft | 319 kts | 318° |
| 2026-05-08 11:39 | 53.64526 | -1.13684 | 10706 ft | 313 kts | 318° |
| 2026-05-08 11:40 | 53.65352 | -1.14857 | 10668 ft | 308 kts | 318° |
| 2026-05-08 11:40 | 53.66163 | -1.16001 | 10633 ft | 302 kts | 318° |
| 2026-05-08 11:40 | 53.66963 | -1.17124 | 10601 ft | 297 kts | 318° |
| 2026-05-08 11:40 | 53.67750 | -1.18226 | 10556 ft | 291 kts | 318° |
| 2026-05-08 11:41 | 53.68523 | -1.19309 | 10531 ft | 286 kts | 319° |
| 2026-05-08 11:41 | 53.69281 | -1.20374 | 10497 ft | 281 kts | 319° |
| 2026-05-08 11:41 | 53.70025 | -1.21423 | 10439 ft | 277 kts | 318° |
| 2026-05-08 11:41 | 53.70764 | -1.22461 | 10316 ft | 276 kts | 318° |
| 2026-05-08 11:42 | 53.71504 | -1.23499 | 10149 ft | 276 kts | 318° |
| 2026-05-08 11:42 | 53.72245 | -1.24535 | 9982 ft | 277 kts | 318° |
| 2026-05-08 11:42 | 53.72985 | -1.25571 | 9808 ft | 275 kts | 318° |
| 2026-05-08 11:42 | 53.73718 | -1.26599 | 9588 ft | 274 kts | 318° |
| 2026-05-08 11:43 | 53.74455 | -1.27635 | 9329 ft | 277 kts | 318° |
| 2026-05-08 11:43 | 53.75197 | -1.28678 | 9145 ft | 278 kts | 318° |
| 2026-05-08 11:43 | 53.75938 | -1.29720 | 9021 ft | 276 kts | 318° |
| 2026-05-08 11:43 | 53.76670 | -1.30750 | 8908 ft | 272 kts | 318° |
| 2026-05-08 11:44 | 53.77394 | -1.31767 | 8726 ft | 270 kts | 318° |
| 2026-05-08 11:44 | 53.78106 | -1.32768 | 8490 ft | 270 kts | 318° |
| 2026-05-08 11:44 | 53.78829 | -1.33786 | 8246 ft | 271 kts | 318° |
| 2026-05-08 11:44 | 53.79561 | -1.34818 | 8007 ft | 270 kts | 318° |
| 2026-05-08 11:45 | 53.80282 | -1.35836 | 7794 ft | 270 kts | 318° |
| 2026-05-08 11:45 | 53.80999 | -1.36849 | 7602 ft | 268 kts | 318° |
| 2026-05-08 11:45 | 53.81703 | -1.37843 | 7402 ft | 266 kts | 318° |
| 2026-05-08 11:45 | 53.82414 | -1.38846 | 7188 ft | 266 kts | 318° |
| 2026-05-08 11:46 | 53.83123 | -1.39847 | 6981 ft | 265 kts | 318° |
| 2026-05-08 11:46 | 53.83829 | -1.40847 | 6769 ft | 264 kts | 318° |
| 2026-05-08 11:46 | 53.84534 | -1.41842 | 6547 ft | 264 kts | 318° |
| 2026-05-08 11:46 | 53.85241 | -1.42839 | 6319 ft | 263 kts | 318° |
| 2026-05-08 11:47 | 53.85943 | -1.43830 | 6102 ft | 262 kts | 318° |
| 2026-05-08 11:47 | 53.86442 | -1.44536 | 5948 ft | 262 kts | 318° |
| 2026-05-08 11:47 | 53.86752 | -1.44974 | 5851 ft | 261 kts | 318° |
| 2026-05-08 11:47 | 53.88150 | -1.46953 | 5445 ft | 263 kts | 318° |
| 2026-05-08 11:48 | 53.89544 | -1.48923 | 5210 ft | 261 kts | 318° |
| 2026-05-08 11:48 | 53.90929 | -1.50885 | 5025 ft | 259 kts | 318° |
| 2026-05-08 11:48 | 53.92308 | -1.52841 | 4807 ft | 257 kts | 318° |
| 2026-05-08 11:48 | 53.93683 | -1.54786 | 4522 ft | 257 kts | 318° |
| 2026-05-08 11:49 | 53.95052 | -1.56735 | 4244 ft | 257 kts | 318° |
| 2026-05-08 11:49 | 53.96405 | -1.58669 | 4033 ft | 253 kts | 318° |
| 2026-05-08 11:49 | 53.97705 | -1.60582 | 3973 ft | 244 kts | 316° |
| 2026-05-08 11:49 | 53.98935 | -1.62499 | 3912 ft | 235 kts | 315° |
| 2026-05-08 11:50 | 54.00116 | -1.64342 | 3853 ft | 227 kts | 315° |
| 2026-05-08 11:50 | 54.01182 | -1.66234 | 3690 ft | 219 kts | 297° |
| 2026-05-08 11:50 | 54.01532 | -1.68667 | 3418 ft | 212 kts | 261° |
| 2026-05-08 11:50 | 54.01007 | -1.70920 | 3277 ft | 201 kts | 233° |
| 2026-05-08 11:51 | 54.00185 | -1.72749 | 3225 ft | 190 kts | 230° |
| 2026-05-08 11:51 | 53.99374 | -1.74465 | 3170 ft | 183 kts | 230° |
| 2026-05-08 11:51 | 53.98587 | -1.76147 | 3028 ft | 181 kts | 230° |
| 2026-05-08 11:51 | 53.97828 | -1.77770 | 3000 ft | 172 kts | 229° |
| 2026-05-08 11:52 | 53.96860 | -1.78858 | 2980 ft | 170 kts | 184° |
| 2026-05-08 11:52 | 53.95679 | -1.78778 | 3005 ft | 174 kts | 179° |
| 2026-05-08 11:52 | 53.94534 | -1.78358 | 2969 ft | 166 kts | 147° |
| 2026-05-08 11:52 | 53.93794 | -1.76929 | 2774 ft | 160 kts | 133° |
| 2026-05-08 11:53 | 53.92940 | -1.75894 | 2554 ft | 157 kts | 152° |
| 2026-05-08 11:53 | 53.92119 | -1.74679 | 2315 ft | 158 kts | 129° |
| 2026-05-08 11:53 | 53.91402 | -1.73424 | 2040 ft | 146 kts | 146° |
| 2026-05-08 11:53 | 53.90662 | -1.72367 | 1833 ft | 138 kts | 139° |
| 2026-05-08 11:54 | 53.89957 | -1.71242 | 1624 ft | 142 kts | 140° |
| 2026-05-08 11:54 | 53.89222 | -1.70108 | 1369 ft | 140 kts | 139° |
| 2026-05-08 11:54 | 53.88512 | -1.69013 | 1169 ft | 138 kts | 138° |
| 2026-05-08 11:54 | 53.87804 | -1.67913 | 957 ft | 137 kts | 139° |
| 2026-05-08 11:55 | 53.87118 | -1.66866 | 724 ft | 134 kts | 139° |
| 2026-05-08 11:55 | 53.86481 | -1.65890 | 666 ft | 103 kts | 137° |
| 2026-05-08 11:55 | 53.86115 | -1.65324 | 679 ft | 45 kts | 138° |
| 2026-05-08 11:55 | 53.85962 | -1.65092 | 669 ft | 21 kts | 137° |
| 2026-05-08 11:56 | 53.85869 | -1.64974 | 663 ft | 9 kts | 128° |
| 2026-05-08 11:56 | 53.85883 | -1.64964 | 662 ft | 4 kts | 316° |
| 2026-05-08 11:56 | 53.85918 | -1.65020 | 665 ft | 10 kts | 316° |
| 2026-05-08 11:56 | 53.85977 | -1.65113 | 670 ft | 14 kts | 317° |
| 2026-05-08 11:57 | 53.86060 | -1.65240 | 675 ft | 19 kts | 318° |
| 2026-05-08 11:57 | 53.86159 | -1.65391 | 680 ft | 19 kts | 317° |
| 2026-05-08 11:57 | 53.86276 | -1.65460 | 679 ft | 18 kts | 4° |
| 2026-05-08 11:57 | 53.86403 | -1.65448 | 674 ft | 19 kts | 3° |
| 2026-05-08 11:58 | 53.86539 | -1.65434 | 666 ft | 16 kts | 3° |
| 2026-05-08 11:58 | 53.86654 | -1.65423 | 661 ft | 14 kts | 4° |
| 2026-05-08 11:58 | 53.86747 | -1.65414 | 660 ft | 12 kts | 1° |
| 2026-05-08 11:59 | 53.86841 | -1.65412 | 663 ft | 4 kts | 1° |
| 2026-05-08 11:59 | 53.86863 | -1.65412 | 664 ft | 3 kts | 1° |
| 2026-05-08 11:59 | 53.86876 | -1.65411 | 664 ft | 1 kts | 0° |
| 2026-05-08 11:59 | 53.86881 | -1.65411 | 664 ft | 0 kts | 0° |